createdAt,value
2022-09-20T00:00:07.456Z,9.71
2022-09-20T00:01:07.300Z,9.67
2022-09-20T00:02:07.222Z,9.66
2022-09-20T00:03:07.231Z,9.63
2022-09-20T00:04:07.317Z,9.61
2022-09-20T00:05:07.253Z,9.60
2022-09-20T00:06:07.208Z,9.57
2022-09-20T00:07:07.185Z,9.52
2022-09-20T00:08:07.151Z,9.49
2022-09-20T00:09:07.146Z,9.50
2022-09-20T00:10:07.133Z,9.49
2022-09-20T00:11:07.151Z,9.45
2022-09-20T00:12:07.127Z,9.40
2022-09-20T00:13:07.098Z,9.35
2022-09-20T00:14:07.096Z,9.31
2022-09-20T00:15:07.065Z,9.27
2022-09-20T00:16:07.109Z,9.25
2022-09-20T00:17:07.116Z,9.24
2022-09-20T00:18:07.056Z,9.24
2022-09-20T00:19:07.234Z,9.23
2022-09-20T00:20:07.028Z,9.21
2022-09-20T00:21:07.003Z,9.24
2022-09-20T00:22:07.035Z,9.25
2022-09-20T00:23:06.975Z,9.24
2022-09-20T00:24:06.983Z,9.20
2022-09-20T00:25:06.955Z,9.18
2022-09-20T00:26:06.956Z,9.18
2022-09-20T00:27:06.965Z,9.18
2022-09-20T00:28:06.945Z,9.21
2022-09-20T00:29:06.918Z,9.21
2022-09-20T00:30:06.951Z,9.23
2022-09-20T00:31:06.885Z,9.23
2022-09-20T00:32:06.926Z,9.25
2022-09-20T00:33:06.874Z,9.23
2022-09-20T00:34:06.983Z,9.21
2022-09-20T00:35:06.866Z,9.18
2022-09-20T00:36:06.827Z,9.18
2022-09-20T00:37:06.840Z,9.18
2022-09-20T00:38:06.806Z,9.16
2022-09-20T00:39:06.807Z,9.18
2022-09-20T00:40:06.866Z,9.23
2022-09-20T00:41:06.766Z,9.25
2022-09-20T00:42:06.757Z,9.24
2022-09-20T00:43:06.768Z,9.21
2022-09-20T00:44:06.737Z,9.20
2022-09-20T00:45:06.784Z,9.20
2022-09-20T00:46:06.762Z,9.16
2022-09-20T00:47:06.698Z,9.16
2022-09-20T00:48:06.742Z,9.15
2022-09-20T00:49:06.691Z,9.12
2022-09-20T00:50:06.661Z,9.13
2022-09-20T00:51:06.691Z,9.15
2022-09-20T00:52:06.647Z,9.15
2022-09-20T00:53:06.632Z,9.16
2022-09-20T00:54:06.633Z,9.18
2022-09-20T00:55:06.608Z,9.25
2022-09-20T00:56:06.589Z,9.30
2022-09-20T00:57:06.628Z,9.31
2022-09-20T00:58:06.571Z,9.31
2022-09-20T00:59:06.568Z,9.28
2022-09-20T01:00:06.581Z,9.30
2022-09-20T01:01:06.553Z,9.28
2022-09-20T01:02:06.617Z,9.31
2022-09-20T01:03:06.575Z,9.31
2022-09-20T01:04:06.590Z,9.30
2022-09-20T01:05:06.517Z,9.28
2022-09-20T01:06:06.480Z,9.28
2022-09-20T01:07:06.479Z,9.28
2022-09-20T01:08:06.463Z,9.30
2022-09-20T01:09:06.473Z,9.27
2022-09-20T01:10:06.450Z,9.28
2022-09-20T01:11:06.449Z,9.24
2022-09-20T01:12:06.410Z,9.21
2022-09-20T01:13:06.400Z,9.18
2022-09-20T01:14:06.420Z,9.16
2022-09-20T01:15:06.381Z,9.18
2022-09-20T01:16:06.467Z,9.21
2022-09-20T01:17:06.382Z,9.25
2022-09-20T01:18:06.343Z,9.24
2022-09-20T01:19:06.420Z,9.21
2022-09-20T01:20:06.371Z,9.20
2022-09-20T01:21:06.341Z,9.16
2022-09-20T01:22:06.316Z,9.20
2022-09-20T01:23:06.294Z,9.21
2022-09-20T01:24:06.273Z,9.27
2022-09-20T01:25:06.267Z,9.28
2022-09-20T01:26:06.313Z,9.27
2022-09-20T01:27:06.254Z,9.30
2022-09-20T01:28:06.249Z,9.28
2022-09-20T01:29:06.211Z,9.27
2022-09-20T01:30:06.219Z,9.27
2022-09-20T01:31:06.186Z,9.28
2022-09-20T01:32:06.301Z,9.28
2022-09-20T01:33:06.183Z,9.25
2022-09-20T01:34:06.279Z,9.23
2022-09-20T01:35:06.143Z,9.20
2022-09-20T01:36:06.144Z,9.20
2022-09-20T01:37:06.165Z,9.20
2022-09-20T01:38:06.163Z,9.20
2022-09-20T01:39:06.106Z,9.18
2022-09-20T01:40:06.161Z,9.18
2022-09-20T01:41:06.101Z,9.20
2022-09-20T01:42:06.068Z,9.18
2022-09-20T01:43:06.109Z,9.16
2022-09-20T01:44:06.049Z,9.21
2022-09-20T01:45:06.025Z,9.24
2022-09-20T01:46:06.071Z,9.25
2022-09-20T01:47:06.008Z,9.27
2022-09-20T01:48:06.017Z,9.25
2022-09-20T01:49:06.050Z,9.25
2022-09-20T01:50:05.988Z,9.28
2022-09-20T01:51:05.968Z,9.27
2022-09-20T01:52:05.985Z,9.27
2022-09-20T01:53:06.047Z,9.25
2022-09-20T01:54:05.953Z,9.24
2022-09-20T01:55:05.980Z,9.24
2022-09-20T01:56:05.915Z,9.23
2022-09-20T01:57:05.907Z,9.20
2022-09-20T01:58:05.877Z,9.20
2022-09-20T01:59:23.079Z,9.16
2022-09-20T02:00:06.878Z,9.13
2022-09-20T02:01:05.905Z,9.10
2022-09-20T02:02:05.939Z,9.05
2022-09-20T02:03:05.923Z,9.04
2022-09-20T02:04:05.852Z,9.06
2022-09-20T02:05:05.877Z,9.06
2022-09-20T02:06:05.848Z,9.06
2022-09-20T02:07:05.880Z,9.06
2022-09-20T02:08:05.817Z,9.04
2022-09-20T02:09:05.800Z,9.01
2022-09-20T02:10:05.842Z,8.94
2022-09-20T02:11:05.839Z,8.88
2022-09-20T02:12:05.761Z,8.86
2022-09-20T02:13:05.775Z,8.83
2022-09-20T02:14:06.014Z,8.88
2022-09-20T02:15:05.725Z,8.90
2022-09-20T02:16:05.861Z,8.88
2022-09-20T02:17:05.682Z,8.90
2022-09-20T02:18:05.650Z,8.91
2022-09-20T02:19:05.661Z,8.96
2022-09-20T02:20:05.705Z,8.97
2022-09-20T02:21:05.622Z,8.97
2022-09-20T02:22:05.657Z,8.94
2022-09-20T02:23:05.639Z,8.94
2022-09-20T02:24:05.579Z,8.94
2022-09-20T02:25:05.592Z,8.99
2022-09-20T02:26:05.561Z,8.99
2022-09-20T02:27:05.585Z,8.96
2022-09-20T02:28:05.560Z,8.96
2022-09-20T02:29:05.584Z,8.99
2022-09-20T02:30:05.511Z,9.01
2022-09-20T02:31:05.513Z,9.02
2022-09-20T02:32:05.559Z,9.02
2022-09-20T02:33:05.481Z,9.01
2022-09-20T02:34:05.511Z,9.04
2022-09-20T02:35:05.492Z,9.05
2022-09-20T02:36:05.452Z,9.06
2022-09-20T02:37:05.432Z,9.05
2022-09-20T02:38:05.427Z,9.05
2022-09-20T02:39:05.413Z,9.04
2022-09-20T02:40:05.507Z,9.05
2022-09-20T02:41:05.401Z,9.04
2022-09-20T02:42:05.380Z,9.04
2022-09-20T02:43:05.371Z,9.04
2022-09-20T02:44:05.436Z,9.02
2022-09-20T02:45:05.356Z,9.04
2022-09-20T02:46:05.406Z,9.04
2022-09-20T02:47:05.323Z,9.01
2022-09-20T02:48:05.347Z,8.99
2022-09-20T02:49:05.294Z,9.01
2022-09-20T02:50:05.285Z,8.99
2022-09-20T02:51:05.311Z,9.01
2022-09-20T02:52:05.296Z,8.97
2022-09-20T02:53:05.268Z,8.97
2022-09-20T02:54:05.234Z,8.96
2022-09-20T02:55:05.254Z,8.97
2022-09-20T02:56:05.216Z,8.94
2022-09-20T02:57:05.223Z,8.94
2022-09-20T02:58:05.230Z,8.93
2022-09-20T02:59:05.304Z,8.99
2022-09-20T03:00:05.184Z,9.01
2022-09-20T03:01:05.211Z,9.04
2022-09-20T03:02:05.168Z,9.04
2022-09-20T03:03:05.136Z,9.04
2022-09-20T03:04:05.147Z,9.04
2022-09-20T03:05:05.115Z,9.02
2022-09-20T03:06:05.118Z,8.99
2022-09-20T03:07:05.087Z,9.01
2022-09-20T03:08:05.080Z,9.02
2022-09-20T03:09:05.056Z,8.99
2022-09-20T03:10:05.080Z,9.04
2022-09-20T03:11:05.070Z,9.06
2022-09-20T03:12:05.027Z,9.04
2022-09-20T03:13:05.008Z,8.99
2022-09-20T03:14:05.055Z,8.93
2022-09-20T03:15:05.028Z,8.96
2022-09-20T03:16:05.037Z,9.02
2022-09-20T03:17:05.054Z,8.99
2022-09-20T03:18:04.957Z,8.97
2022-09-20T03:19:04.950Z,8.94
2022-09-20T03:20:04.939Z,8.93
2022-09-20T03:21:04.946Z,8.90
2022-09-20T03:22:04.916Z,8.86
2022-09-20T03:23:04.908Z,8.86
2022-09-20T03:24:04.887Z,8.87
2022-09-20T03:25:04.876Z,8.87
2022-09-20T03:26:04.869Z,8.86
2022-09-20T03:27:04.869Z,8.84
2022-09-20T03:28:04.858Z,8.86
2022-09-20T03:29:04.901Z,8.88
2022-09-20T03:30:04.828Z,8.88
2022-09-20T03:31:04.822Z,8.93
2022-09-20T03:32:04.891Z,8.94
2022-09-20T03:33:04.790Z,8.93
2022-09-20T03:34:04.789Z,8.93
2022-09-20T03:35:04.798Z,8.97
2022-09-20T03:36:04.752Z,8.99
2022-09-20T03:37:04.740Z,9.04
2022-09-20T03:38:04.762Z,9.06
2022-09-20T03:39:04.710Z,9.15
2022-09-20T03:40:04.838Z,9.25
2022-09-20T03:41:04.690Z,9.30
2022-09-20T03:42:04.705Z,9.32
2022-09-20T03:43:04.746Z,9.32
2022-09-20T03:44:04.770Z,9.32
2022-09-20T03:45:04.643Z,9.32
2022-09-20T03:46:04.658Z,9.35
2022-09-20T03:47:04.628Z,9.39
2022-09-20T03:48:04.611Z,9.40
2022-09-20T03:49:04.634Z,9.43
2022-09-20T03:50:04.612Z,9.43
2022-09-20T03:51:04.581Z,9.43
2022-09-20T03:52:04.572Z,9.43
2022-09-20T03:53:04.562Z,9.45
2022-09-20T03:54:04.563Z,9.43
2022-09-20T03:55:04.565Z,9.45
2022-09-20T03:56:04.533Z,9.40
2022-09-20T03:57:04.518Z,9.38
2022-09-20T03:58:08.588Z,9.34
2022-09-20T03:59:04.500Z,9.31
2022-09-20T04:00:04.476Z,9.28
2022-09-20T04:01:04.526Z,9.23
2022-09-20T04:02:04.520Z,9.20
2022-09-20T04:03:04.453Z,9.21
2022-09-20T04:04:04.435Z,9.20
2022-09-20T04:05:04.422Z,9.21
2022-09-20T04:06:04.419Z,9.20
2022-09-20T04:07:04.427Z,9.21
2022-09-20T04:08:04.396Z,9.20
2022-09-20T04:09:04.407Z,9.20
2022-09-20T04:10:04.364Z,9.21
2022-09-20T04:11:04.369Z,9.21
2022-09-20T04:12:04.375Z,9.21
2022-09-20T04:13:04.370Z,9.24
2022-09-20T04:14:06.874Z,9.24
2022-09-20T04:15:05.304Z,9.24
2022-09-20T04:16:04.301Z,9.23
2022-09-20T04:17:04.409Z,9.24
2022-09-20T04:18:04.294Z,9.24
2022-09-20T04:19:04.309Z,9.23
2022-09-20T04:20:04.246Z,9.23
2022-09-20T04:21:04.259Z,9.24
2022-09-20T04:22:04.237Z,9.24
2022-09-20T04:23:04.216Z,9.24
2022-09-20T04:24:04.236Z,9.21
2022-09-20T04:25:04.206Z,9.18
2022-09-20T04:26:04.188Z,9.18
2022-09-20T04:27:04.189Z,9.13
2022-09-20T04:28:04.159Z,9.10
2022-09-20T04:29:04.149Z,9.12
2022-09-20T04:30:04.459Z,9.10
2022-09-20T04:31:04.127Z,9.06
2022-09-20T04:32:04.217Z,9.05
2022-09-20T04:33:04.104Z,9.04
2022-09-20T04:34:04.098Z,9.01
2022-09-20T04:35:04.122Z,8.99
2022-09-20T04:36:04.067Z,8.99
2022-09-20T04:37:04.061Z,8.97
2022-09-20T04:38:04.048Z,8.94
2022-09-20T04:39:04.042Z,8.93
2022-09-20T04:40:04.109Z,8.93
2022-09-20T04:41:04.049Z,8.91
2022-09-20T04:42:04.006Z,8.91
2022-09-20T04:43:03.999Z,8.90
2022-09-20T04:44:03.989Z,8.91
2022-09-20T04:45:03.973Z,8.91
2022-09-20T04:46:04.011Z,8.91
2022-09-20T04:47:03.983Z,8.93
2022-09-20T04:48:03.940Z,8.93
2022-09-20T04:49:03.911Z,8.97
2022-09-20T04:50:03.899Z,8.96
2022-09-20T04:51:03.891Z,8.94
2022-09-20T04:52:03.921Z,8.96
2022-09-20T04:53:03.888Z,8.99
2022-09-20T04:54:03.866Z,8.97
2022-09-20T04:55:03.858Z,8.99
2022-09-20T04:56:03.831Z,8.99
2022-09-20T04:57:03.821Z,8.97
2022-09-20T04:58:03.848Z,8.97
2022-09-20T04:59:03.811Z,9.01
2022-09-20T05:00:03.802Z,8.99
2022-09-20T05:01:03.830Z,8.94
2022-09-20T05:02:03.895Z,8.90
2022-09-20T05:03:03.777Z,8.90
2022-09-20T05:04:03.782Z,8.90
2022-09-20T05:05:03.741Z,8.87
2022-09-20T05:06:03.734Z,8.84
2022-09-20T05:07:03.703Z,8.86
2022-09-20T05:08:03.703Z,8.88
2022-09-20T05:09:03.702Z,8.84
2022-09-20T05:10:03.702Z,8.84
2022-09-20T05:11:03.662Z,8.84
2022-09-20T05:12:03.668Z,8.81
2022-09-20T05:13:03.634Z,8.84
2022-09-20T05:14:03.634Z,8.83
2022-09-20T05:15:03.664Z,8.78
2022-09-20T05:16:03.676Z,8.72
2022-09-20T05:17:03.726Z,8.66
2022-09-20T05:18:03.586Z,8.60
2022-09-20T05:19:03.583Z,8.57
2022-09-20T05:20:03.573Z,8.53
2022-09-20T05:21:03.590Z,8.54
2022-09-20T05:22:03.552Z,8.62
2022-09-20T05:23:03.534Z,8.71
2022-09-20T05:24:03.517Z,8.73
2022-09-20T05:25:03.521Z,8.76
2022-09-20T05:26:03.500Z,8.81
2022-09-20T05:27:03.589Z,8.87
2022-09-20T05:28:03.509Z,8.87
2022-09-20T05:29:03.470Z,8.88
2022-09-20T05:30:04.836Z,8.88
2022-09-20T05:31:03.443Z,8.91
2022-09-20T05:32:03.507Z,8.94
2022-09-20T05:33:03.500Z,8.94
2022-09-20T05:34:03.394Z,8.96
2022-09-20T05:35:03.390Z,8.96
2022-09-20T05:36:03.380Z,8.96
2022-09-20T05:37:03.364Z,8.94
2022-09-20T05:38:03.362Z,8.96
2022-09-20T05:39:03.802Z,8.91
2022-09-20T05:40:03.384Z,8.93
2022-09-20T05:41:03.330Z,8.91
2022-09-20T05:42:03.310Z,8.93
2022-09-20T05:43:03.296Z,8.88
2022-09-20T05:44:03.289Z,8.87
2022-09-20T05:45:03.313Z,8.81
2022-09-20T05:46:03.322Z,8.73
2022-09-20T05:47:03.257Z,8.71
2022-09-20T05:48:03.267Z,8.69
2022-09-20T05:49:03.227Z,8.68
2022-09-20T05:50:03.208Z,8.68
2022-09-20T05:51:04.082Z,8.68
2022-09-20T05:52:03.208Z,8.73
2022-09-20T05:53:03.178Z,8.78
2022-09-20T05:54:03.157Z,8.83
2022-09-20T05:55:03.149Z,8.86
2022-09-20T05:56:03.139Z,8.86
2022-09-20T05:57:03.139Z,8.86
2022-09-20T05:58:03.139Z,8.87
2022-09-20T05:59:03.118Z,8.90
2022-09-20T06:00:03.102Z,8.90
2022-09-20T06:01:03.140Z,8.96
2022-09-20T06:02:03.141Z,8.96
2022-09-20T06:03:03.060Z,8.97
2022-09-20T06:04:03.050Z,9.04
2022-09-20T06:05:03.028Z,9.09
2022-09-20T06:06:03.047Z,9.15
2022-09-20T06:07:03.010Z,9.16
2022-09-20T06:08:03.023Z,9.23
2022-09-20T06:09:02.997Z,9.25
2022-09-20T06:10:02.982Z,9.30
2022-09-20T06:11:02.981Z,9.32
2022-09-20T06:12:03.683Z,9.32
2022-09-20T06:13:02.971Z,9.35
2022-09-20T06:14:02.933Z,9.40
2022-09-20T06:15:02.911Z,9.43
2022-09-20T06:16:02.919Z,9.48
2022-09-20T06:17:02.946Z,9.49
2022-09-20T06:18:02.890Z,9.49
2022-09-20T06:19:02.909Z,9.49
2022-09-20T06:20:02.874Z,9.49
2022-09-20T06:21:02.853Z,9.48
2022-09-20T06:22:03.824Z,9.49
2022-09-20T06:23:02.822Z,9.50
2022-09-20T06:24:02.832Z,9.52
2022-09-20T06:25:02.835Z,9.53
2022-09-20T06:26:02.816Z,9.56
2022-09-20T06:27:02.773Z,9.53
2022-09-20T06:28:02.773Z,9.56
2022-09-20T06:29:02.761Z,9.58
2022-09-20T06:30:02.752Z,9.60
2022-09-20T06:31:02.825Z,9.60
2022-09-20T06:32:02.741Z,9.58
2022-09-20T06:33:02.716Z,9.61
2022-09-20T06:34:02.706Z,9.63
2022-09-20T06:35:02.684Z,9.66
2022-09-20T06:36:02.742Z,9.68
2022-09-20T06:37:02.664Z,9.73
2022-09-20T06:38:02.672Z,9.73
2022-09-20T06:39:02.648Z,9.73
2022-09-20T06:40:02.686Z,9.73
2022-09-20T06:41:02.621Z,9.75
2022-09-20T06:42:02.655Z,9.76
2022-09-20T06:43:02.603Z,9.78
2022-09-20T06:44:02.627Z,9.76
2022-09-20T06:45:02.580Z,9.75
2022-09-20T06:46:02.626Z,9.76
2022-09-20T06:47:02.556Z,9.76
2022-09-20T06:48:02.556Z,9.79
2022-09-20T06:49:02.524Z,9.79
2022-09-20T06:50:02.525Z,9.82
2022-09-20T06:51:02.508Z,9.85
2022-09-20T06:52:02.501Z,9.86
2022-09-20T06:53:02.505Z,9.91
2022-09-20T06:54:02.466Z,9.93
2022-09-20T06:55:02.463Z,9.94
2022-09-20T06:56:02.450Z,9.99
2022-09-20T06:57:02.438Z,10.06
2022-09-20T06:58:02.418Z,10.14
2022-09-20T06:59:02.436Z,10.21
2022-09-20T07:00:02.413Z,10.28
2022-09-20T07:01:02.462Z,10.37
2022-09-20T07:02:02.426Z,10.47
2022-09-20T07:03:02.367Z,10.56
2022-09-20T07:04:02.377Z,10.65
2022-09-20T07:05:02.352Z,10.76
2022-09-20T07:06:02.329Z,10.83
2022-09-20T07:07:06.122Z,10.95
2022-09-20T07:08:03.305Z,11.06
2022-09-20T07:09:02.298Z,11.11
2022-09-20T07:10:02.311Z,11.19
2022-09-20T07:11:02.269Z,11.25
2022-09-20T07:12:02.270Z,11.31
2022-09-20T07:13:02.254Z,11.39
2022-09-20T07:14:02.238Z,11.47
2022-09-20T07:15:02.229Z,11.47
2022-09-20T07:16:02.240Z,11.54
2022-09-20T07:17:02.202Z,11.59
2022-09-20T07:18:02.200Z,11.70
2022-09-20T07:19:02.182Z,11.78
2022-09-20T07:20:02.167Z,11.83
2022-09-20T07:21:02.168Z,11.87
2022-09-20T07:22:02.171Z,11.93
2022-09-20T07:23:02.139Z,11.94
2022-09-20T07:24:02.122Z,11.96
2022-09-20T07:25:02.113Z,12.01
2022-09-20T07:26:02.095Z,12.09
2022-09-20T07:27:02.125Z,12.19
2022-09-20T07:28:02.072Z,12.24
2022-09-20T07:29:02.063Z,12.29
2022-09-20T07:30:02.063Z,12.34
2022-09-20T07:31:02.054Z,12.45
2022-09-20T07:32:02.117Z,12.51
2022-09-20T07:33:02.090Z,12.62
2022-09-20T07:34:02.013Z,12.66
2022-09-20T07:35:02.004Z,12.74
2022-09-20T07:36:01.973Z,12.81
2022-09-20T07:37:01.973Z,12.87
2022-09-20T07:38:01.955Z,12.92
2022-09-20T07:39:01.977Z,12.92
2022-09-20T07:40:01.989Z,13.00
2022-09-20T07:41:01.934Z,13.06
2022-09-20T07:42:01.905Z,13.04
2022-09-20T07:43:01.898Z,13.14
2022-09-20T07:44:01.904Z,13.27
2022-09-20T07:45:01.885Z,13.40
2022-09-20T07:46:01.888Z,13.44
2022-09-20T07:47:01.854Z,13.49
2022-09-20T07:48:01.846Z,13.47
2022-09-20T07:49:01.825Z,13.46
2022-09-20T07:50:01.844Z,13.52
2022-09-20T07:51:03.877Z,13.69
2022-09-20T07:52:02.805Z,13.76
2022-09-20T07:53:01.794Z,13.77
2022-09-20T07:54:01.768Z,13.84
2022-09-20T07:55:01.781Z,13.88
2022-09-20T07:56:01.779Z,13.94
2022-09-20T07:57:01.757Z,13.99
2022-09-20T07:58:01.756Z,13.98
2022-09-20T07:59:01.718Z,14.01
2022-09-20T08:00:01.712Z,13.94
2022-09-20T08:01:01.745Z,13.77
2022-09-20T08:02:01.723Z,13.52
2022-09-20T08:03:01.668Z,13.47
2022-09-20T08:04:01.698Z,13.37
2022-09-20T08:05:01.647Z,13.38
2022-09-20T08:06:01.688Z,13.36
2022-09-20T08:07:01.673Z,13.40
2022-09-20T08:08:01.620Z,13.32
2022-09-20T08:09:01.617Z,13.32
2022-09-20T08:10:01.603Z,13.30
2022-09-20T08:11:01.590Z,13.32
2022-09-20T08:14:05.173Z,13.40
2022-09-20T08:14:07.074Z,13.52
2022-09-20T08:15:02.550Z,13.59
2022-09-20T08:16:01.536Z,13.63
2022-09-20T08:17:01.501Z,13.52
2022-09-20T08:18:01.510Z,13.56
2022-09-20T08:19:01.546Z,13.62
2022-09-20T08:20:01.527Z,13.76
2022-09-20T08:21:01.480Z,13.73
2022-09-20T08:22:01.463Z,13.74
2022-09-20T08:23:22.642Z,13.70
2022-09-20T08:24:02.521Z,13.71
2022-09-20T08:25:01.421Z,13.84
2022-09-20T08:26:01.413Z,14.01
2022-09-20T08:27:01.419Z,14.16
2022-09-20T08:28:01.395Z,14.16
2022-09-20T08:29:01.382Z,14.04
2022-09-20T08:30:01.402Z,13.99
2022-09-20T08:31:01.380Z,13.80
2022-09-20T08:32:01.444Z,13.79
2022-09-20T08:33:01.338Z,13.69
2022-09-20T08:34:01.326Z,13.69
2022-09-20T08:35:01.323Z,13.77
2022-09-20T08:36:01.298Z,13.76
2022-09-20T08:37:01.320Z,13.80
2022-09-20T08:40:02.369Z,13.74
2022-09-20T08:41:01.281Z,13.79
2022-09-20T08:42:01.291Z,13.81
2022-09-20T08:43:05.565Z,13.87
2022-09-20T08:44:01.233Z,13.91
2022-09-20T08:45:01.216Z,13.91
2022-09-20T08:46:05.527Z,13.87
2022-09-20T08:47:01.303Z,13.84
2022-09-20T08:48:01.200Z,13.83
2022-09-20T08:49:01.159Z,13.87
2022-09-20T08:50:08.854Z,13.77
2022-09-20T08:51:05.672Z,13.88
2022-09-20T08:52:01.139Z,13.99
2022-09-20T08:53:01.152Z,14.10
2022-09-20T08:54:01.095Z,14.20
2022-09-20T08:55:01.300Z,14.28
2022-09-20T08:56:01.068Z,14.28
2022-09-20T08:57:01.085Z,14.31
2022-09-20T08:58:04.947Z,14.31
2022-09-20T08:59:02.080Z,14.38
2022-09-20T09:00:01.020Z,14.67
2022-09-20T09:01:01.090Z,14.91
2022-09-20T09:02:01.056Z,14.99
2022-09-20T09:03:01.000Z,15.20
2022-09-20T09:04:00.988Z,15.01
2022-09-20T09:05:00.994Z,14.78
2022-09-20T09:06:00.959Z,14.88
2022-09-20T09:07:00.949Z,15.11
2022-09-20T09:08:00.941Z,15.30
2022-09-20T09:09:00.941Z,15.19
2022-09-20T09:10:00.931Z,15.31
2022-09-20T09:11:00.932Z,15.43
2022-09-20T09:12:00.882Z,15.52
2022-09-20T09:13:00.890Z,15.56
2022-09-20T09:14:00.862Z,15.64
2022-09-20T09:15:00.868Z,15.52
2022-09-20T09:16:00.842Z,15.45
2022-09-20T09:17:01.040Z,15.57
2022-09-20T09:18:00.824Z,15.66
2022-09-20T09:19:00.811Z,15.46
2022-09-20T09:20:00.798Z,15.51
2022-09-20T09:21:00.809Z,15.61
2022-09-20T09:22:00.775Z,15.67
2022-09-20T09:23:00.831Z,15.72
2022-09-20T09:24:00.747Z,15.84
2022-09-20T09:25:00.737Z,15.89
2022-09-20T09:26:00.724Z,15.97
2022-09-20T09:27:00.705Z,16.01
2022-09-20T09:28:00.749Z,15.92
2022-09-20T09:29:00.693Z,15.48
2022-09-20T09:30:00.694Z,15.42
2022-09-20T09:31:00.671Z,15.45
2022-09-20T09:32:00.734Z,15.38
2022-09-20T09:33:00.655Z,15.48
2022-09-20T09:34:00.758Z,15.59
2022-09-20T09:35:00.608Z,15.74
2022-09-20T09:36:00.602Z,15.88
2022-09-20T09:37:00.597Z,15.82
2022-09-20T09:38:00.581Z,15.88
2022-09-20T09:39:00.767Z,15.57
2022-09-20T09:40:00.607Z,15.43
2022-09-20T09:41:00.557Z,15.46
2022-09-20T09:42:00.539Z,15.49
2022-09-20T09:43:00.555Z,15.51
2022-09-20T09:44:00.500Z,15.43
2022-09-20T09:45:00.538Z,15.54
2022-09-20T09:46:00.543Z,15.39
2022-09-20T09:47:00.467Z,15.38
2022-09-20T09:48:00.451Z,15.66
2022-09-20T09:49:00.441Z,15.99
2022-09-20T09:50:02.895Z,16.03
2022-09-20T09:51:00.470Z,15.93
2022-09-20T09:52:00.410Z,15.99
2022-09-20T09:53:00.402Z,15.63
2022-09-20T09:54:00.398Z,15.51
2022-09-20T09:55:03.237Z,15.81
2022-09-20T09:56:00.412Z,15.85
2022-09-20T09:57:00.352Z,15.86
2022-09-20T09:58:00.347Z,15.85
2022-09-20T09:59:00.329Z,15.94
2022-09-20T10:00:01.834Z,15.97
2022-09-20T10:01:00.354Z,15.99
2022-09-20T10:02:00.340Z,15.93
2022-09-20T10:03:00.317Z,16.01
2022-09-20T10:04:00.283Z,16.22
2022-09-20T10:05:00.264Z,16.40
2022-09-20T10:06:00.246Z,16.53
2022-09-20T10:07:00.247Z,16.41
2022-09-20T10:08:00.261Z,16.38
2022-09-20T10:09:00.267Z,16.23
2022-09-20T10:10:00.215Z,16.00
2022-09-20T10:11:00.196Z,16.01
2022-09-20T10:12:00.164Z,16.00
2022-09-20T10:13:00.214Z,16.01
2022-09-20T10:14:00.145Z,15.94
2022-09-20T10:15:00.153Z,15.92
2022-09-20T10:16:00.118Z,16.04
2022-09-20T10:17:00.129Z,16.23
2022-09-20T10:18:00.097Z,16.34
2022-09-20T10:19:00.127Z,16.41
2022-09-20T10:20:00.120Z,16.63
2022-09-20T10:21:00.090Z,16.77
2022-09-20T10:22:00.063Z,16.89
2022-09-20T10:23:30.023Z,16.99
2022-09-20T10:24:03.996Z,17.03
2022-09-20T10:25:00.061Z,17.10
2022-09-20T10:26:00.032Z,17.10
2022-09-20T10:27:00.008Z,17.11
2022-09-20T10:27:59.978Z,17.18
2022-09-20T10:29:00.005Z,17.04
2022-09-20T10:29:59.969Z,17.14
2022-09-20T10:30:59.988Z,17.15
2022-09-20T10:31:59.950Z,16.85
2022-09-20T10:32:59.940Z,16.77
2022-09-20T10:33:59.939Z,16.62
2022-09-20T10:34:59.953Z,16.41
2022-09-20T10:35:59.924Z,16.44
2022-09-20T10:36:59.924Z,16.40
2022-09-20T10:37:59.874Z,16.41
2022-09-20T10:38:59.897Z,16.35
2022-09-20T10:39:59.887Z,16.33
2022-09-20T10:40:59.885Z,16.34
2022-09-20T10:41:59.834Z,16.38
2022-09-20T10:42:59.843Z,16.42
2022-09-20T10:44:04.909Z,16.56
2022-09-20T10:45:00.856Z,16.44
2022-09-20T10:46:21.055Z,16.49
2022-09-20T10:47:00.889Z,16.44
2022-09-20T10:47:59.777Z,16.52
2022-09-20T10:48:59.747Z,16.35
2022-09-20T10:49:59.736Z,16.20
2022-09-20T10:50:59.733Z,16.04
2022-09-20T10:51:59.754Z,16.07
2022-09-20T10:52:59.710Z,15.93
2022-09-20T10:53:59.694Z,15.99
2022-09-20T10:54:59.675Z,15.93
2022-09-20T10:55:59.674Z,15.85
2022-09-20T10:56:59.651Z,15.79
2022-09-20T10:57:59.687Z,15.72
2022-09-20T10:58:59.625Z,15.72
2022-09-20T10:59:59.634Z,15.74
2022-09-20T11:00:59.632Z,15.66
2022-09-20T11:01:59.730Z,15.61
2022-09-20T11:02:59.577Z,15.61
2022-09-20T11:03:59.736Z,15.60
2022-09-20T11:04:59.620Z,15.61
2022-09-20T11:05:59.546Z,15.52
2022-09-20T11:06:59.527Z,15.41
2022-09-20T11:07:59.527Z,15.33
2022-09-20T11:08:59.567Z,15.38
2022-09-20T11:09:59.516Z,15.51
2022-09-20T11:10:59.480Z,15.61
2022-09-20T11:11:59.474Z,15.81
2022-09-20T11:12:59.459Z,15.86
2022-09-20T11:13:59.448Z,15.79
2022-09-20T11:14:59.469Z,15.51
2022-09-20T11:15:59.429Z,15.19
2022-09-20T11:16:59.503Z,15.17
2022-09-20T11:17:59.410Z,15.17
2022-09-20T11:18:59.389Z,15.24
2022-09-20T11:20:03.363Z,15.48
2022-09-20T11:21:00.401Z,15.79
2022-09-20T11:21:59.351Z,16.11
2022-09-20T11:22:59.341Z,16.40
2022-09-20T11:23:59.412Z,16.70
2022-09-20T11:24:59.314Z,16.73
2022-09-20T11:25:59.302Z,16.67
2022-09-20T11:26:59.348Z,16.75
2022-09-20T11:27:59.280Z,16.83
2022-09-20T11:28:59.272Z,17.13
2022-09-20T11:29:59.307Z,17.38
2022-09-20T11:30:59.243Z,17.62
2022-09-20T11:31:59.325Z,17.89
2022-09-20T11:32:59.242Z,17.97
2022-09-20T11:33:59.206Z,17.95
2022-09-20T11:35:00.154Z,17.99
2022-09-20T11:35:59.466Z,17.73
2022-09-20T11:36:59.174Z,17.69
2022-09-20T11:37:59.193Z,17.73
2022-09-20T11:38:59.144Z,17.41
2022-09-20T11:39:59.150Z,17.28
2022-09-20T11:40:59.144Z,17.28
2022-09-20T11:41:59.117Z,17.35
2022-09-20T11:42:59.116Z,17.53
2022-09-20T11:43:59.136Z,17.63
2022-09-20T11:44:59.076Z,17.81
2022-09-20T11:45:59.147Z,17.87
2022-09-20T11:46:59.068Z,18.00
2022-09-20T11:47:59.087Z,17.47
2022-09-20T11:48:59.036Z,17.28
2022-09-20T11:49:59.076Z,17.40
2022-09-20T11:50:59.017Z,17.54
2022-09-20T11:51:58.998Z,17.48
2022-09-20T11:52:59.000Z,17.46
2022-09-20T11:53:58.977Z,17.53
2022-09-20T11:54:58.967Z,17.63
2022-09-20T11:55:59.021Z,17.50
2022-09-20T11:56:58.949Z,17.59
2022-09-20T11:57:58.938Z,17.89
2022-09-20T11:58:59.002Z,17.91
2022-09-20T11:59:58.918Z,17.94
2022-09-20T12:00:58.929Z,18.03
2022-09-20T12:01:58.932Z,18.13
2022-09-20T12:02:59.041Z,18.22
2022-09-20T12:04:20.600Z,17.99
2022-09-20T12:04:59.862Z,17.35
2022-09-20T12:05:58.942Z,17.32
2022-09-20T12:06:58.862Z,17.20
2022-09-20T12:07:58.825Z,17.20
2022-09-20T12:08:58.817Z,17.18
2022-09-20T12:09:58.796Z,17.20
2022-09-20T12:10:58.793Z,17.18
2022-09-20T12:11:58.804Z,17.26
2022-09-20T12:12:58.863Z,17.14
2022-09-20T12:13:58.753Z,17.07
2022-09-20T12:14:58.754Z,17.13
2022-09-20T12:15:58.714Z,17.25
2022-09-20T12:16:58.704Z,17.36
2022-09-20T12:17:58.772Z,17.44
2022-09-20T12:18:58.713Z,17.38
2022-09-20T12:19:58.675Z,17.23
2022-09-20T12:20:58.678Z,17.22
2022-09-20T12:21:58.645Z,17.22
2022-09-20T12:22:58.637Z,17.20
2022-09-20T12:23:58.658Z,17.07
2022-09-20T12:24:58.628Z,16.98
2022-09-20T12:25:58.605Z,16.93
2022-09-20T12:26:58.617Z,16.98
2022-09-20T12:27:58.607Z,17.10
2022-09-20T12:28:58.590Z,17.07
2022-09-20T12:29:58.562Z,16.90
2022-09-20T12:30:58.547Z,16.93
2022-09-20T12:31:58.630Z,16.93
2022-09-20T12:32:58.527Z,16.99
2022-09-20T12:33:58.518Z,16.99
2022-09-20T12:34:58.530Z,16.93
2022-09-20T12:35:58.616Z,16.98
2022-09-20T12:36:58.478Z,16.93
2022-09-20T12:37:58.460Z,16.93
2022-09-20T12:38:58.524Z,16.86
2022-09-20T12:39:58.487Z,16.86
2022-09-20T12:40:58.509Z,16.96
2022-09-20T12:41:58.421Z,17.20
2022-09-20T12:42:58.436Z,17.25
2022-09-20T12:43:58.412Z,17.08
2022-09-20T12:44:58.433Z,16.98
2022-09-20T12:46:03.902Z,16.90
2022-09-20T12:46:59.417Z,16.89
2022-09-20T12:47:58.355Z,16.86
2022-09-20T12:48:58.365Z,16.78
2022-09-20T12:49:58.349Z,16.73
2022-09-20T12:50:58.343Z,16.58
2022-09-20T12:51:58.323Z,16.59
2022-09-20T12:52:58.362Z,16.68
2022-09-20T12:53:58.283Z,16.56
2022-09-20T12:55:02.693Z,16.58
2022-09-20T12:55:59.273Z,16.62
2022-09-20T12:56:58.245Z,16.60
2022-09-20T12:57:58.274Z,16.71
2022-09-20T12:58:58.223Z,16.81
2022-09-20T12:59:58.226Z,16.77
2022-09-20T13:00:58.273Z,16.86
2022-09-20T13:01:58.289Z,16.99
2022-09-20T13:02:58.210Z,17.15
2022-09-20T13:03:58.200Z,17.30
2022-09-20T13:04:58.194Z,17.40
2022-09-20T13:05:58.160Z,17.57
2022-09-20T13:06:58.135Z,17.57
2022-09-20T13:07:58.125Z,17.69
2022-09-20T13:08:58.137Z,17.84